sensor_id;sensor_type;location;lat;lon;timestamp;pressure;altitude;pressure_sealevel;temperature
15360;BMP280;7779;49.596;11.070;2023-07-09T00:02:01;98572.81;;;22.62
15360;BMP280;7779;49.596;11.070;2023-07-09T00:04:28;98576.19;;;22.61
15360;BMP280;7779;49.596;11.070;2023-07-09T00:06:59;98580.41;;;22.58
15360;BMP280;7779;49.596;11.070;2023-07-09T00:09:26;98579.56;;;22.57
15360;BMP280;7779;49.596;11.070;2023-07-09T00:11:52;98585.50;;;22.56
15360;BMP280;7779;49.596;11.070;2023-07-09T00:14:17;98579.50;;;22.54
15360;BMP280;7779;49.596;11.070;2023-07-09T00:16:44;98586.28;;;22.52
15360;BMP280;7779;49.596;11.070;2023-07-09T00:19:18;98579.47;;;22.51
15360;BMP280;7779;49.596;11.070;2023-07-09T00:21:50;98584.56;;;22.50
15360;BMP280;7779;49.596;11.070;2023-07-09T00:24:19;98586.25;;;22.48
15360;BMP280;7779;49.596;11.070;2023-07-09T00:26:45;98583.66;;;22.46
15360;BMP280;7779;49.596;11.070;2023-07-09T00:29:17;98581.94;;;22.44
15360;BMP280;7779;49.596;11.070;2023-07-09T00:31:42;98579.31;;;22.39
15360;BMP280;7779;49.596;11.070;2023-07-09T00:34:15;98580.97;;;22.37
15360;BMP280;7779;49.596;11.070;2023-07-09T00:36:43;98577.50;;;22.33
15360;BMP280;7779;49.596;11.070;2023-07-09T00:39:18;98583.44;;;22.30
15360;BMP280;7779;49.596;11.070;2023-07-09T00:41:45;98594.47;;;22.28
15360;BMP280;7779;49.596;11.070;2023-07-09T00:49:26;98596.81;;;22.16
15360;BMP280;7779;49.596;11.070;2023-07-09T00:51:53;98592.47;;;22.12
15360;BMP280;7779;49.596;11.070;2023-07-09T00:56:59;98593.22;;;22.05
15360;BMP280;7779;49.596;11.070;2023-07-09T00:59:30;98594.00;;;22.01
15360;BMP280;7779;49.596;11.070;2023-07-09T01:01:58;98594.81;;;21.97
15360;BMP280;7779;49.596;11.070;2023-07-09T01:04:27;98588.78;;;21.92
15360;BMP280;7779;49.596;11.070;2023-07-09T01:06:56;98593.81;;;21.89
15360;BMP280;7779;49.596;11.070;2023-07-09T01:09:23;98594.63;;;21.87
15360;BMP280;7779;49.596;11.070;2023-07-09T01:11:50;98592.03;;;21.84
15360;BMP280;7779;49.596;11.070;2023-07-09T01:14:20;98592.00;;;21.82
15360;BMP280;7779;49.596;11.070;2023-07-09T01:16:53;98598.75;;;21.80
15360;BMP280;7779;49.596;11.070;2023-07-09T01:19:24;98602.09;;;21.76
15360;BMP280;7779;49.596;11.070;2023-07-09T01:21:59;98600.41;;;21.75
15360;BMP280;7779;49.596;11.070;2023-07-09T01:27:26;98604.59;;;21.72
15360;BMP280;7779;49.596;11.070;2023-07-09T01:29:55;98606.25;;;21.70
15360;BMP280;7779;49.596;11.070;2023-07-09T01:32:22;98607.94;;;21.69
15360;BMP280;7779;49.596;11.070;2023-07-09T01:34:53;98604.53;;;21.69
15360;BMP280;7779;49.596;11.070;2023-07-09T01:37:26;98604.53;;;21.69
15360;BMP280;7779;49.596;11.070;2023-07-09T01:39:53;98606.19;;;21.67
15360;BMP280;7779;49.596;11.070;2023-07-09T01:42:23;98608.72;;;21.65
15360;BMP280;7779;49.596;11.070;2023-07-09T01:44:51;98601.91;;;21.64
15360;BMP280;7779;49.596;11.070;2023-07-09T01:47:17;98617.16;;;21.61
15360;BMP280;7779;49.596;11.070;2023-07-09T01:49:43;98610.31;;;21.60
15360;BMP280;7779;49.596;11.070;2023-07-09T01:52:14;98611.97;;;21.58
15360;BMP280;7779;49.596;11.070;2023-07-09T01:54:42;98624.69;;;21.56
15360;BMP280;7779;49.596;11.070;2023-07-09T01:59:42;98617.72;;;21.46
15360;BMP280;7779;49.596;11.070;2023-07-09T02:02:10;98613.38;;;21.42
15360;BMP280;7779;49.596;11.070;2023-07-09T02:04:47;98621.78;;;21.38
15360;BMP280;7779;49.596;11.070;2023-07-09T02:07:13;98619.13;;;21.33
15360;BMP280;7779;49.596;11.070;2023-07-09T02:09:39;98618.22;;;21.30
15360;BMP280;7779;49.596;11.070;2023-07-09T02:12:06;98616.44;;;21.26
15360;BMP280;7779;49.596;11.070;2023-07-09T02:14:31;98618.06;;;21.22
15360;BMP280;7779;49.596;11.070;2023-07-09T02:16:57;98627.34;;;21.19
15360;BMP280;7779;49.596;11.070;2023-07-09T02:19:24;98623.06;;;21.16
15360;BMP280;7779;49.596;11.070;2023-07-09T02:21:50;98622.16;;;21.13
15360;BMP280;7779;49.596;11.070;2023-07-09T02:24:15;98624.63;;;21.10
15360;BMP280;7779;49.596;11.070;2023-07-09T02:26:41;98625.44;;;21.08
15360;BMP280;7779;49.596;11.070;2023-07-09T02:29:07;98622.81;;;21.03
15360;BMP280;7779;49.596;11.070;2023-07-09T02:31:33;98619.31;;;20.98
15360;BMP280;7779;49.596;11.070;2023-07-09T02:34:00;98626.06;;;20.96
15360;BMP280;7779;49.596;11.070;2023-07-09T02:36:26;98627.66;;;20.91
15360;BMP280;7779;49.596;11.070;2023-07-09T02:38:51;98631.81;;;20.88
15360;BMP280;7779;49.596;11.070;2023-07-09T02:41:17;98630.84;;;20.83
15360;BMP280;7779;49.596;11.070;2023-07-09T02:43:43;98624.84;;;20.79
15360;BMP280;7779;49.596;11.070;2023-07-09T02:46:10;98629.88;;;20.77
15360;BMP280;7779;49.596;11.070;2023-07-09T02:48:36;98627.22;;;20.72
15360;BMP280;7779;49.596;11.070;2023-07-09T02:51:02;98624.63;;;20.69
15360;BMP280;7779;49.596;11.070;2023-07-09T02:53:28;98633.09;;;20.68
15360;BMP280;7779;49.596;11.070;2023-07-09T02:55:55;98628.81;;;20.66
15360;BMP280;7779;49.596;11.070;2023-07-09T02:58:20;98628.72;;;20.63
15360;BMP280;7779;49.596;11.070;2023-07-09T03:00:49;98631.19;;;20.61
15360;BMP280;7779;49.596;11.070;2023-07-09T03:03:19;98637.94;;;20.59
15360;BMP280;7779;49.596;11.070;2023-07-09T03:05:47;98635.34;;;20.58
15360;BMP280;7779;49.596;11.070;2023-07-09T03:08:14;98642.09;;;20.56
15360;BMP280;7779;49.596;11.070;2023-07-09T03:10:40;98645.50;;;20.55
15360;BMP280;7779;49.596;11.070;2023-07-09T03:13:06;98637.81;;;20.53
15360;BMP280;7779;49.596;11.070;2023-07-09T03:15:32;98642.91;;;20.53
15360;BMP280;7779;49.596;11.070;2023-07-09T03:17:58;98643.69;;;20.51
15360;BMP280;7779;49.596;11.070;2023-07-09T03:20:24;98650.44;;;20.49
15360;BMP280;7779;49.596;11.070;2023-07-09T03:22:50;98653.81;;;20.48
15360;BMP280;7779;49.596;11.070;2023-07-09T03:25:16;98658.84;;;20.45
15360;BMP280;7779;49.596;11.070;2023-07-09T03:27:42;98655.44;;;20.44
15360;BMP280;7779;49.596;11.070;2023-07-09T03:30:08;98652.03;;;20.44
15360;BMP280;7779;49.596;11.070;2023-07-09T03:32:34;98652.03;;;20.44
15360;BMP280;7779;49.596;11.070;2023-07-09T03:35:00;98651.13;;;20.42
15360;BMP280;7779;49.596;11.070;2023-07-09T03:37:25;98656.25;;;20.43
15360;BMP280;7779;49.596;11.070;2023-07-09T03:39:51;98662.22;;;20.44
15360;BMP280;7779;49.596;11.070;2023-07-09T03:42:17;98667.34;;;20.47
15360;BMP280;7779;49.596;11.070;2023-07-09T03:44:42;98659.75;;;20.48
15360;BMP280;7779;49.596;11.070;2023-07-09T03:47:08;98666.59;;;20.51
15360;BMP280;7779;49.596;11.070;2023-07-09T03:49:34;98662.47;;;20.56
15360;BMP280;7779;49.596;11.070;2023-07-09T03:52:00;98667.69;;;20.60
15360;BMP280;7779;49.596;11.070;2023-07-09T03:54:25;98669.59;;;20.69
15360;BMP280;7779;49.596;11.070;2023-07-09T03:56:51;98671.44;;;20.76
15360;BMP280;7779;49.596;11.070;2023-07-09T03:59:17;98680.13;;;20.83
15360;BMP280;7779;49.596;11.070;2023-07-09T04:01:43;98668.41;;;20.91
15360;BMP280;7779;49.596;11.070;2023-07-09T04:04:13;98664.31;;;20.99
15360;BMP280;7779;49.596;11.070;2023-07-09T04:06:39;98653.38;;;21.03
15360;BMP280;7779;49.596;11.070;2023-07-09T04:09:05;98665.41;;;21.12
15360;BMP280;7779;49.596;11.070;2023-07-09T04:11:31;98665.53;;;21.16
15360;BMP280;7779;49.596;11.070;2023-07-09T04:13:56;98664.75;;;21.20
15360;BMP280;7779;49.596;11.070;2023-07-09T04:16:22;98666.53;;;21.24
15360;BMP280;7779;49.596;11.070;2023-07-09T04:18:48;98668.31;;;21.28
15360;BMP280;7779;49.596;11.070;2023-07-09T04:21:14;98674.31;;;21.31
15360;BMP280;7779;49.596;11.070;2023-07-09T04:23:40;98670.19;;;21.36
15360;BMP280;7779;49.596;11.070;2023-07-09T04:26:05;98671.09;;;21.40
15360;BMP280;7779;49.596;11.070;2023-07-09T04:28:34;98678.06;;;21.47
15360;BMP280;7779;49.596;11.070;2023-07-09T04:31:00;98672.19;;;21.51
15360;BMP280;7779;49.596;11.070;2023-07-09T04:33:26;98674.91;;;21.59
15360;BMP280;7779;49.596;11.070;2023-07-09T04:35:52;98670.09;;;21.74
15360;BMP280;7779;49.596;11.070;2023-07-09T04:38:17;98667.91;;;21.96
15360;BMP280;7779;49.596;11.070;2023-07-09T04:40:44;98664.16;;;22.24
15360;BMP280;7779;49.596;11.070;2023-07-09T04:43:10;98670.59;;;22.54
15360;BMP280;7779;49.596;11.070;2023-07-09T04:45:35;98659.09;;;22.84
15360;BMP280;7779;49.596;11.070;2023-07-09T04:48:01;98666.28;;;23.09
15360;BMP280;7779;49.596;11.070;2023-07-09T04:50:27;98663.97;;;23.29
15360;BMP280;7779;49.596;11.070;2023-07-09T04:52:53;98664.19;;;23.47
15360;BMP280;7779;49.596;11.070;2023-07-09T04:55:19;98664.34;;;23.62
15360;BMP280;7779;49.596;11.070;2023-07-09T04:57:45;98667.09;;;23.78
15360;BMP280;7779;49.596;11.070;2023-07-09T05:00:12;98659.56;;;23.92
15360;BMP280;7779;49.596;11.070;2023-07-09T05:02:38;98657.94;;;24.02
15360;BMP280;7779;49.596;11.070;2023-07-09T05:05:04;98660.59;;;24.13
15360;BMP280;7779;49.596;11.070;2023-07-09T05:07:31;98666.66;;;24.22
15360;BMP280;7779;49.596;11.070;2023-07-09T05:09:58;98670.19;;;24.33
15360;BMP280;7779;49.596;11.070;2023-07-09T05:12:27;98670.25;;;24.42
15360;BMP280;7779;49.596;11.070;2023-07-09T05:14:55;98669.44;;;24.52
15360;BMP280;7779;49.596;11.070;2023-07-09T05:17:22;98665.25;;;24.60
15360;BMP280;7779;49.596;11.070;2023-07-09T05:19:50;98670.44;;;24.72
15360;BMP280;7779;49.596;11.070;2023-07-09T05:22:16;98663.66;;;24.81
15360;BMP280;7779;49.596;11.070;2023-07-09T05:24:42;98667.16;;;24.93
15360;BMP280;7779;49.596;11.070;2023-07-09T05:27:08;98665.53;;;25.07
15360;BMP280;7779;49.596;11.070;2023-07-09T05:29:34;98664.75;;;25.21
15360;BMP280;7779;49.596;11.070;2023-07-09T05:32:00;98668.22;;;25.37
15360;BMP280;7779;49.596;11.070;2023-07-09T05:34:26;98658.00;;;25.50
15360;BMP280;7779;49.596;11.070;2023-07-09T05:36:52;98663.19;;;25.65
15360;BMP280;7779;49.596;11.070;2023-07-09T05:39:17;98666.66;;;25.77
15360;BMP280;7779;49.596;11.070;2023-07-09T05:41:43;98653.84;;;25.89
15360;BMP280;7779;49.596;11.070;2023-07-09T05:44:09;98664.13;;;26.04
15360;BMP280;7779;49.596;11.070;2023-07-09T05:46:36;98665.00;;;26.16
15360;BMP280;7779;49.596;11.070;2023-07-09T05:49:05;98659.88;;;26.28
15360;BMP280;7779;49.596;11.070;2023-07-09T05:51:31;98665.00;;;26.40
15360;BMP280;7779;49.596;11.070;2023-07-09T05:53:57;98667.56;;;26.53
15360;BMP280;7779;49.596;11.070;2023-07-09T05:56:22;98667.56;;;26.67
15360;BMP280;7779;49.596;11.070;2023-07-09T05:58:48;98664.06;;;26.82
15360;BMP280;7779;49.596;11.070;2023-07-09T06:01:14;98662.34;;;26.98
15360;BMP280;7779;49.596;11.070;2023-07-09T06:03:39;98661.44;;;27.13
15360;BMP280;7779;49.596;11.070;2023-07-09T06:06:05;98662.22;;;27.30
15360;BMP280;7779;49.596;11.070;2023-07-09T06:08:31;98661.31;;;27.48
15360;BMP280;7779;49.596;11.070;2023-07-09T06:11:01;98662.91;;;27.66
15360;BMP280;7779;49.596;11.070;2023-07-09T06:13:29;98674.81;;;27.85
15360;BMP280;7779;49.596;11.070;2023-07-09T06:15:59;98668.72;;;28.05
15360;BMP280;7779;49.596;11.070;2023-07-09T06:18:26;98669.41;;;28.25
15360;BMP280;7779;49.596;11.070;2023-07-09T06:21:00;98657.16;;;28.48
15360;BMP280;7779;49.596;11.070;2023-07-09T06:23:27;98655.25;;;28.69
15360;BMP280;7779;49.596;11.070;2023-07-09T06:25:53;98659.34;;;28.89
15360;BMP280;7779;49.596;11.070;2023-07-09T06:28:23;98659.94;;;29.12
15360;BMP280;7779;49.596;11.070;2023-07-09T06:30:50;98658.00;;;29.32
15360;BMP280;7779;49.596;11.070;2023-07-09T06:33:18;98655.13;;;29.54
15360;BMP280;7779;49.596;11.070;2023-07-09T06:35:56;98653.13;;;29.75
15360;BMP280;7779;49.596;11.070;2023-07-09T06:38:22;98661.44;;;29.95
15360;BMP280;7779;49.596;11.070;2023-07-09T06:40:48;98659.44;;;30.12
15360;BMP280;7779;49.596;11.070;2023-07-09T06:43:14;98653.97;;;30.32
15360;BMP280;7779;49.596;11.070;2023-07-09T06:45:59;98651.94;;;30.51
15360;BMP280;7779;49.596;11.070;2023-07-09T06:48:28;98654.22;;;30.66
15360;BMP280;7779;49.596;11.070;2023-07-09T06:50:55;98654.00;;;30.80
15360;BMP280;7779;49.596;11.070;2023-07-09T06:53:22;98660.66;;;30.93
15360;BMP280;7779;49.596;11.070;2023-07-09T06:55:48;98662.16;;;31.05
15360;BMP280;7779;49.596;11.070;2023-07-09T06:58:22;98661.94;;;31.15
15360;BMP280;7779;49.596;11.070;2023-07-09T07:00:51;98674.59;;;31.28
15360;BMP280;7779;49.596;11.070;2023-07-09T07:03:18;98664.09;;;31.37
15360;BMP280;7779;49.596;11.070;2023-07-09T07:05:49;98663.88;;;31.48
15360;BMP280;7779;49.596;11.070;2023-07-09T07:08:17;98663.69;;;31.55
15360;BMP280;7779;49.596;11.070;2023-07-09T07:10:45;98662.69;;;31.62
15360;BMP280;7779;49.596;11.070;2023-07-09T07:13:12;98651.31;;;31.69
15360;BMP280;7779;49.596;11.070;2023-07-09T07:15:39;98656.34;;;31.75
15360;BMP280;7779;49.596;11.070;2023-07-09T07:18:06;98653.56;;;31.84
15360;BMP280;7779;49.596;11.070;2023-07-09T07:20:33;98660.22;;;31.95
15360;BMP280;7779;49.596;11.070;2023-07-09T07:22:59;98648.72;;;32.06
15360;BMP280;7779;49.596;11.070;2023-07-09T07:25:25;98646.72;;;32.17
15360;BMP280;7779;49.596;11.070;2023-07-09T07:27:51;98651.56;;;32.30
15360;BMP280;7779;49.596;11.070;2023-07-09T07:30:17;98652.25;;;32.38
15360;BMP280;7779;49.596;11.070;2023-07-09T07:32:47;98649.47;;;32.46
15360;BMP280;7779;49.596;11.070;2023-07-09T07:35:15;98646.72;;;32.52
15360;BMP280;7779;49.596;11.070;2023-07-09T07:37:41;98649.97;;;32.60
15360;BMP280;7779;49.596;11.070;2023-07-09T07:40:08;98649.81;;;32.66
15360;BMP280;7779;49.596;11.070;2023-07-09T07:42:35;98648.84;;;32.70
15360;BMP280;7779;49.596;11.070;2023-07-09T07:45:01;98651.25;;;32.77
15360;BMP280;7779;49.596;11.070;2023-07-09T07:47:27;98649.28;;;32.86
15360;BMP280;7779;49.596;11.070;2023-07-09T07:49:53;98643.91;;;32.92
15360;BMP280;7779;49.596;11.070;2023-07-09T07:52:20;98641.94;;;33.02
15360;BMP280;7779;49.596;11.070;2023-07-09T07:54:45;98649.50;;;33.09
15360;BMP280;7779;49.596;11.070;2023-07-09T07:57:11;98649.25;;;33.18
15360;BMP280;7779;49.596;11.070;2023-07-09T07:59:38;98646.44;;;33.25
15360;BMP280;7779;49.596;11.070;2023-07-09T08:02:07;98640.94;;;33.36
15360;BMP280;7779;49.596;11.070;2023-07-09T08:04:35;98637.19;;;33.46
15360;BMP280;7779;49.596;11.070;2023-07-09T08:07:01;98640.38;;;33.55
15360;BMP280;7779;49.596;11.070;2023-07-09T08:09:28;98637.53;;;33.62
15360;BMP280;7779;49.596;11.070;2023-07-09T08:11:55;98639.84;;;33.71
15360;BMP280;7779;49.596;11.070;2023-07-09T08:14:21;98638.78;;;33.78
15360;BMP280;7779;49.596;11.070;2023-07-09T08:16:47;98638.53;;;33.87
15360;BMP280;7779;49.596;11.070;2023-07-09T08:19:13;98627.03;;;33.94
15360;BMP280;7779;49.596;11.070;2023-07-09T08:21:39;98624.16;;;34.03
15360;BMP280;7779;49.596;11.070;2023-07-09T08:24:05;98622.88;;;34.14
15360;BMP280;7779;49.596;11.070;2023-07-09T08:26:31;98625.19;;;34.23
15360;BMP280;7779;49.596;11.070;2023-07-09T08:28:58;98625.78;;;34.31
15360;BMP280;7779;49.596;11.070;2023-07-09T08:31:24;98612.56;;;34.38
15360;BMP280;7779;49.596;11.070;2023-07-09T08:33:50;98617.44;;;34.47
15360;BMP280;7779;49.596;11.070;2023-07-09T08:36:15;98620.75;;;34.52
15360;BMP280;7779;49.596;11.070;2023-07-09T08:38:41;98617.06;;;34.58
15360;BMP280;7779;49.596;11.070;2023-07-09T08:41:44;98608.25;;;34.62
15360;BMP280;7779;49.596;11.070;2023-07-09T08:44:44;98610.63;;;34.69
15360;BMP280;7779;49.596;11.070;2023-07-09T08:49:59;98618.72;;;34.86
15360;BMP280;7779;49.596;11.070;2023-07-09T08:52:36;98611.44;;;34.94
15360;BMP280;7779;49.596;11.070;2023-07-09T08:55:15;98613.69;;;35.04
15360;BMP280;7779;49.596;11.070;2023-07-09T08:57:47;98613.41;;;35.11
15360;BMP280;7779;49.596;11.070;2023-07-09T09:00:18;98605.28;;;35.19
15360;BMP280;7779;49.596;11.070;2023-07-09T09:02:57;98611.13;;;35.25
15360;BMP280;7779;49.596;11.070;2023-07-09T09:05:25;98612.75;;;35.29
15360;BMP280;7779;49.596;11.070;2023-07-09T09:08:18;98613.19;;;35.40
15360;BMP280;7779;49.596;11.070;2023-07-09T09:13:46;98612.59;;;35.55
15360;BMP280;7779;49.596;11.070;2023-07-09T09:16:27;98616.56;;;35.65
15360;BMP280;7779;49.596;11.070;2023-07-09T09:18:58;98620.53;;;35.75
15360;BMP280;7779;49.596;11.070;2023-07-09T09:21:32;98615.88;;;35.83
15360;BMP280;7779;49.596;11.070;2023-07-09T09:24:31;98606.97;;;35.88
15360;BMP280;7779;49.596;11.070;2023-07-09T09:26:59;98612.78;;;35.94
15360;BMP280;7779;49.596;11.070;2023-07-09T09:29:26;98609.94;;;36.00
15360;BMP280;7779;49.596;11.070;2023-07-09T09:31:55;98604.31;;;36.09
15360;BMP280;7779;49.596;11.070;2023-07-09T09:34:26;98600.56;;;36.16
15360;BMP280;7779;49.596;11.070;2023-07-09T09:36:53;98601.19;;;36.23
15360;BMP280;7779;49.596;11.070;2023-07-09T09:39:21;98603.47;;;36.30
15360;BMP280;7779;49.596;11.070;2023-07-09T09:41:48;98610.16;;;36.37
15360;BMP280;7779;49.596;11.070;2023-07-09T09:44:29;98602.13;;;36.41
15360;BMP280;7779;49.596;11.070;2023-07-09T09:46:57;98609.88;;;36.43
15360;BMP280;7779;49.596;11.070;2023-07-09T09:49:23;98600.16;;;36.46
15360;BMP280;7779;49.596;11.070;2023-07-09T09:51:49;98600.88;;;36.50
15360;BMP280;7779;49.596;11.070;2023-07-09T09:54:23;98605.84;;;36.56
15360;BMP280;7779;49.596;11.070;2023-07-09T09:56:50;98602.16;;;36.60
15360;BMP280;7779;49.596;11.070;2023-07-09T09:59:29;98604.56;;;36.66
15360;BMP280;7779;49.596;11.070;2023-07-09T10:01:59;98600.84;;;36.71
15360;BMP280;7779;49.596;11.070;2023-07-09T10:04:26;98604.03;;;36.77
15360;BMP280;7779;49.596;11.070;2023-07-09T10:07:01;98602.06;;;36.82
15360;BMP280;7779;49.596;11.070;2023-07-09T10:12:32;98590.72;;;36.83
15360;BMP280;7779;49.596;11.070;2023-07-09T10:15:51;98596.06;;;36.80
15360;BMP280;7779;49.596;11.070;2023-07-09T10:18:43;98589.22;;;36.78
15360;BMP280;7779;49.596;11.070;2023-07-09T10:27:32;98583.78;;;36.82
15360;BMP280;7779;49.596;11.070;2023-07-09T10:30:17;98581.06;;;36.85
15360;BMP280;7779;49.596;11.070;2023-07-09T10:33:13;98577.31;;;36.91
15360;BMP280;7779;49.596;11.070;2023-07-09T10:39:04;98576.84;;;37.01
15360;BMP280;7779;49.596;11.070;2023-07-09T10:41:35;98576.75;;;37.03
15360;BMP280;7779;49.596;11.070;2023-07-09T10:44:11;98568.91;;;37.03
15360;BMP280;7779;49.596;11.070;2023-07-09T10:46:43;98581.13;;;37.02
15360;BMP280;7779;49.596;11.070;2023-07-09T10:49:14;98568.84;;;37.04
15360;BMP280;7779;49.596;11.070;2023-07-09T10:51:54;98564.41;;;37.06
15360;BMP280;7779;49.596;11.070;2023-07-09T10:54:39;98563.38;;;37.10
15360;BMP280;7779;49.596;11.070;2023-07-09T10:57:24;98563.25;;;37.13
15360;BMP280;7779;49.596;11.070;2023-07-09T10:59:52;98559.84;;;37.11
15360;BMP280;7779;49.596;11.070;2023-07-09T11:02:29;98544.03;;;37.14
15360;BMP280;7779;49.596;11.070;2023-07-09T11:05:01;98555.28;;;37.16
15360;BMP280;7779;49.596;11.070;2023-07-09T11:07:43;98553.44;;;37.18
15360;BMP280;7779;49.596;11.070;2023-07-09T11:10:27;98544.81;;;37.16
15360;BMP280;7779;49.596;11.070;2023-07-09T11:13:18;98544.81;;;37.16
15360;BMP280;7779;49.596;11.070;2023-07-09T11:15:51;98544.03;;;37.14
15360;BMP280;7779;49.596;11.070;2023-07-09T11:18:30;98538.81;;;37.14
15360;BMP280;7779;49.596;11.070;2023-07-09T11:21:04;98536.97;;;37.16
15360;BMP280;7779;49.596;11.070;2023-07-09T11:23:56;98530.03;;;37.15
15360;BMP280;7779;49.596;11.070;2023-07-09T11:26:34;98535.44;;;37.12
15360;BMP280;7779;49.596;11.070;2023-07-09T11:29:16;98536.47;;;37.08
15360;BMP280;7779;49.596;11.070;2023-07-09T11:31:45;98530.59;;;37.03
15360;BMP280;7779;49.596;11.070;2023-07-09T11:37:01;98529.00;;;36.99
15360;BMP280;7779;49.596;11.070;2023-07-09T11:44:57;98515.50;;;37.10
15360;BMP280;7779;49.596;11.070;2023-07-09T11:47:42;98513.47;;;37.16
15360;BMP280;7779;49.596;11.070;2023-07-09T11:50:24;98512.28;;;37.23
15360;BMP280;7779;49.596;11.070;2023-07-09T11:53:02;98504.13;;;37.29
15360;BMP280;7779;49.596;11.070;2023-07-09T11:55:39;98503.91;;;37.33
15360;BMP280;7779;49.596;11.070;2023-07-09T11:58:11;98498.41;;;37.39
15360;BMP280;7779;49.596;11.070;2023-07-09T12:00:45;98502.50;;;37.45
15360;BMP280;7779;49.596;11.070;2023-07-09T12:03:19;98500.47;;;37.50
15360;BMP280;7779;49.596;11.070;2023-07-09T12:05:53;98497.56;;;37.57
15360;BMP280;7779;49.596;11.070;2023-07-09T12:08:40;98501.63;;;37.62
15360;BMP280;7779;49.596;11.070;2023-07-09T12:11:26;98495.47;;;37.63
15360;BMP280;7779;49.596;11.070;2023-07-09T12:13:53;98489.47;;;37.61
15360;BMP280;7779;49.596;11.070;2023-07-09T12:16:29;98487.63;;;37.63
15360;BMP280;7779;49.596;11.070;2023-07-09T12:18:55;98492.78;;;37.65
15360;BMP280;7779;49.596;11.070;2023-07-09T12:21:23;98498.09;;;37.63
15360;BMP280;7779;49.596;11.070;2023-07-09T12:23:50;98483.47;;;37.59
15360;BMP280;7779;49.596;11.070;2023-07-09T12:26:19;98487.00;;;37.58
15360;BMP280;7779;49.596;11.070;2023-07-09T12:28:57;98480.72;;;37.62
15360;BMP280;7779;49.596;11.070;2023-07-09T12:31:29;98487.50;;;37.66
15360;BMP280;7779;49.596;11.070;2023-07-09T12:33:58;98478.69;;;37.67
15360;BMP280;7779;49.596;11.070;2023-07-09T12:36:26;98483.16;;;37.65
15360;BMP280;7779;49.596;11.070;2023-07-09T12:39:03;98471.09;;;37.63
15360;BMP280;7779;49.596;11.070;2023-07-09T12:41:40;98467.78;;;37.59
15360;BMP280;7779;49.596;11.070;2023-07-09T12:44:18;98462.56;;;37.59
15360;BMP280;7779;49.596;11.070;2023-07-09T12:46:46;98459.00;;;37.60
15360;BMP280;7779;49.596;11.070;2023-07-09T12:49:29;98456.09;;;37.66
15360;BMP280;7779;49.596;11.070;2023-07-09T12:51:57;98454.25;;;37.68
15360;BMP280;7779;49.596;11.070;2023-07-09T12:54:23;98447.09;;;37.72
15360;BMP280;7779;49.596;11.070;2023-07-09T12:56:54;98452.28;;;37.73
15360;BMP280;7779;49.596;11.070;2023-07-09T12:59:37;98447.25;;;37.69
15360;BMP280;7779;49.596;11.070;2023-07-09T13:02:23;98451.00;;;37.63
15360;BMP280;7779;49.596;11.070;2023-07-09T13:04:57;98455.84;;;37.54
15360;BMP280;7779;49.596;11.070;2023-07-09T13:09:53;98442.63;;;37.39
15360;BMP280;7779;49.596;11.070;2023-07-09T13:12:26;98445.56;;;37.33
15360;BMP280;7779;49.596;11.070;2023-07-09T13:14:54;98444.94;;;37.28
15360;BMP280;7779;49.596;11.070;2023-07-09T13:17:21;98438.16;;;37.24
15360;BMP280;7779;49.596;11.070;2023-07-09T13:19:46;98445.16;;;37.23
15360;BMP280;7779;49.596;11.070;2023-07-09T13:22:18;98447.72;;;37.25
15360;BMP280;7779;49.596;11.070;2023-07-09T13:24:45;98446.69;;;37.27
15360;BMP280;7779;49.596;11.070;2023-07-09T13:27:13;98436.19;;;37.29
15360;BMP280;7779;49.596;11.070;2023-07-09T13:29:40;98440.47;;;37.30
15360;BMP280;7779;49.596;11.070;2023-07-09T13:32:14;98438.66;;;37.32
15360;BMP280;7779;49.596;11.070;2023-07-09T13:34:41;98427.50;;;37.28
15360;BMP280;7779;49.596;11.070;2023-07-09T13:37:15;98440.63;;;37.27
15360;BMP280;7779;49.596;11.070;2023-07-09T13:39:42;98433.69;;;37.26
15360;BMP280;7779;49.596;11.070;2023-07-09T13:42:13;98432.94;;;37.24
15360;BMP280;7779;49.596;11.070;2023-07-09T13:44:41;98429.56;;;37.22
15360;BMP280;7779;49.596;11.070;2023-07-09T13:47:17;98427.06;;;37.19
15360;BMP280;7779;49.596;11.070;2023-07-09T13:49:45;98420.31;;;37.15
15360;BMP280;7779;49.596;11.070;2023-07-09T13:52:19;98426.47;;;37.14
15360;BMP280;7779;49.596;11.070;2023-07-09T13:54:45;98423.22;;;37.09
15360;BMP280;7779;49.596;11.070;2023-07-09T13:57:19;98424.25;;;37.05
15360;BMP280;7779;49.596;11.070;2023-07-09T13:59:47;98421.78;;;37.02
15360;BMP280;7779;49.596;11.070;2023-07-09T14:02:30;98419.03;;;37.05
15360;BMP280;7779;49.596;11.070;2023-07-09T14:05:03;98416.28;;;37.08
15360;BMP280;7779;49.596;11.070;2023-07-09T14:07:34;98403.94;;;37.12
15360;BMP280;7779;49.596;11.070;2023-07-09T14:10:04;98405.34;;;37.18
15360;BMP280;7779;49.596;11.070;2023-07-09T14:12:30;98399.91;;;37.23
15360;BMP280;7779;49.596;11.070;2023-07-09T14:15:00;98408.97;;;37.33
15360;BMP280;7779;49.596;11.070;2023-07-09T14:17:27;98407.75;;;37.40
15360;BMP280;7779;49.596;11.070;2023-07-09T14:19:53;98399.53;;;37.47
15360;BMP280;7779;49.596;11.070;2023-07-09T14:22:32;98394.78;;;37.55
15360;BMP280;7779;49.596;11.070;2023-07-09T14:24:59;98393.63;;;37.60
15360;BMP280;7779;49.596;11.070;2023-07-09T14:27:26;98392.41;;;37.67
15360;BMP280;7779;49.596;11.070;2023-07-09T14:29:53;98393.88;;;37.73
15360;BMP280;7779;49.596;11.070;2023-07-09T14:32:32;98393.66;;;37.77
15360;BMP280;7779;49.596;11.070;2023-07-09T14:35:01;98377.88;;;37.79
15360;BMP280;7779;49.596;11.070;2023-07-09T14:37:27;98371.78;;;37.78
15360;BMP280;7779;49.596;11.070;2023-07-09T14:39:53;98370.88;;;37.79
15360;BMP280;7779;49.596;11.070;2023-07-09T14:42:19;98362.88;;;37.82
15360;BMP280;7779;49.596;11.070;2023-07-09T14:44:47;98369.78;;;37.83
15360;BMP280;7779;49.596;11.070;2023-07-09T14:47:20;98373.16;;;37.85
15360;BMP280;7779;49.596;11.070;2023-07-09T14:49:47;98361.03;;;37.84
15360;BMP280;7779;49.596;11.070;2023-07-09T14:52:16;98358.41;;;37.84
15360;BMP280;7779;49.596;11.070;2023-07-09T14:54:44;98360.09;;;37.85
15360;BMP280;7779;49.596;11.070;2023-07-09T14:57:24;98354.09;;;37.83
15360;BMP280;7779;49.596;11.070;2023-07-09T14:59:52;98347.19;;;37.82
15360;BMP280;7779;49.596;11.070;2023-07-09T15:02:35;98352.41;;;37.82
15360;BMP280;7779;49.596;11.070;2023-07-09T15:05:12;98352.41;;;37.82
15360;BMP280;7779;49.596;11.070;2023-07-09T15:07:38;98352.41;;;37.82